Prundu, Romania
Current Conditions -  °F | °C
As of 3:00 PM on Tuesday 21 Oct 2014 (Local Time) from LRBS Reporting Station
Clear Clear  
Wind Chill: 75°   Ceiling: Unl
Heat Index: 75°   Visibility: 6mi
Dew Point: 54°   Wind: 5mph
Humidity: 47%   Direction: 220°SW
Pressure: 29.8"   Gusts: NA
Location:  44.1°N, 26.23°E
Report Text: LRBS 211200Z 22004KT 190V260 CAVOK 24/12 Q1009 NOSIG
Loading
Personal Weather Stations






























Interactive Weather Map
Tropical Storm Tracking
New forecast layout! Learn more

10-Day Weather Forecast

Advertisements
Track Severe Weather on mobile